sensor_id;sensor_type;location;lat;lon;timestamp;P1;durP1;ratioP1;P2;durP2;ratioP2
48268;SDS011;34088;52.232;5.196;2023-06-26T00:01:14;7.57;;;6.88;;
48268;SDS011;34088;52.232;5.196;2023-06-26T00:03:39;8.65;;;7.25;;
48268;SDS011;34088;52.232;5.196;2023-06-26T00:06:04;8.65;;;7.68;;
48268;SDS011;34088;52.232;5.196;2023-06-26T00:08:30;7.88;;;7.07;;
48268;SDS011;34088;52.232;5.196;2023-06-26T00:10:55;7.80;;;7.00;;
48268;SDS011;34088;52.232;5.196;2023-06-26T00:13:23;8.07;;;7.00;;
48268;SDS011;34088;52.232;5.196;2023-06-26T00:15:49;8.27;;;6.60;;
48268;SDS011;34088;52.232;5.196;2023-06-26T00:18:15;7.97;;;6.60;;
48268;SDS011;34088;52.232;5.196;2023-06-26T00:33:09;8.38;;;6.80;;
48268;SDS011;34088;52.232;5.196;2023-06-26T00:35:35;7.20;;;6.50;;
48268;SDS011;34088;52.232;5.196;2023-06-26T00:38:00;9.10;;;6.90;;
48268;SDS011;34088;52.232;5.196;2023-06-26T00:40:26;8.27;;;6.60;;
48268;SDS011;34088;52.232;5.196;2023-06-26T00:42:52;8.85;;;6.80;;
48268;SDS011;34088;52.232;5.196;2023-06-26T00:45:17;7.55;;;6.82;;
48268;SDS011;34088;52.232;5.196;2023-06-26T00:47:43;8.15;;;6.70;;
48268;SDS011;34088;52.232;5.196;2023-06-26T00:50:08;7.35;;;6.65;;
48268;SDS011;34088;52.232;5.196;2023-06-26T00:52:34;8.18;;;6.65;;
48268;SDS011;34088;52.232;5.196;2023-06-26T00:54:59;9.05;;;6.72;;
48268;SDS011;34088;52.232;5.196;2023-06-26T00:57:25;7.65;;;6.38;;
48268;SDS011;34088;52.232;5.196;2023-06-26T00:59:50;8.25;;;6.70;;
48268;SDS011;34088;52.232;5.196;2023-06-26T01:02:16;9.57;;;7.30;;
48268;SDS011;34088;52.232;5.196;2023-06-26T01:04:46;8.70;;;7.20;;
48268;SDS011;34088;52.232;5.196;2023-06-26T01:07:13;8.52;;;7.00;;
48268;SDS011;34088;52.232;5.196;2023-06-26T01:09:40;8.57;;;6.90;;
48268;SDS011;34088;52.232;5.196;2023-06-26T01:12:06;8.68;;;5.85;;
48268;SDS011;34088;52.232;5.196;2023-06-26T01:14:33;8.52;;;6.47;;
48268;SDS011;34088;52.232;5.196;2023-06-26T01:17:00;8.15;;;6.75;;
48268;SDS011;34088;52.232;5.196;2023-06-26T01:19:27;8.52;;;6.78;;
48268;SDS011;34088;52.232;5.196;2023-06-26T01:21:58;10.98;;;6.80;;
48268;SDS011;34088;52.232;5.196;2023-06-26T01:24:33;8.60;;;6.50;;
48268;SDS011;34088;52.232;5.196;2023-06-26T01:27:03;8.77;;;6.65;;
48268;SDS011;34088;52.232;5.196;2023-06-26T01:29:30;9.20;;;6.88;;
48268;SDS011;34088;52.232;5.196;2023-06-26T01:31:57;11.38;;;7.43;;
48268;SDS011;34088;52.232;5.196;2023-06-26T01:34:24;10.30;;;6.40;;
48268;SDS011;34088;52.232;5.196;2023-06-26T01:36:49;9.27;;;6.80;;
48268;SDS011;34088;52.232;5.196;2023-06-26T01:39:15;11.10;;;6.70;;
48268;SDS011;34088;52.232;5.196;2023-06-26T01:41:43;10.15;;;6.40;;
48268;SDS011;34088;52.232;5.196;2023-06-26T01:44:11;9.63;;;6.43;;
48268;SDS011;34088;52.232;5.196;2023-06-26T01:46:56;10.15;;;5.82;;
48268;SDS011;34088;52.232;5.196;2023-06-26T01:49:47;8.63;;;5.90;;
48268;SDS011;34088;52.232;5.196;2023-06-26T01:52:21;9.55;;;5.55;;
48268;SDS011;34088;52.232;5.196;2023-06-26T01:54:56;10.25;;;5.55;;
48268;SDS011;34088;52.232;5.196;2023-06-26T01:57:43;7.57;;;5.30;;
48268;SDS011;34088;52.232;5.196;2023-06-26T02:00:12;10.43;;;5.65;;
48268;SDS011;34088;52.232;5.196;2023-06-26T02:02:42;10.20;;;5.60;;
48268;SDS011;34088;52.232;5.196;2023-06-26T02:05:08;9.57;;;5.60;;
48268;SDS011;34088;52.232;5.196;2023-06-26T02:07:33;10.82;;;5.63;;
48268;SDS011;34088;52.232;5.196;2023-06-26T02:09:59;10.98;;;5.53;;
48268;SDS011;34088;52.232;5.196;2023-06-26T02:12:24;11.05;;;5.45;;
48268;SDS011;34088;52.232;5.196;2023-06-26T02:14:49;9.13;;;4.72;;
48268;SDS011;34088;52.232;5.196;2023-06-26T02:17:16;10.00;;;5.63;;
48268;SDS011;34088;52.232;5.196;2023-06-26T02:19:41;9.32;;;5.25;;
48268;SDS011;34088;52.232;5.196;2023-06-26T02:22:12;12.32;;;5.13;;
48268;SDS011;34088;52.232;5.196;2023-06-26T02:24:38;14.15;;;5.50;;
48268;SDS011;34088;52.232;5.196;2023-06-26T02:27:03;10.40;;;5.78;;
48268;SDS011;34088;52.232;5.196;2023-06-26T02:29:29;9.85;;;5.40;;
48268;SDS011;34088;52.232;5.196;2023-06-26T02:31:54;10.75;;;5.90;;
48268;SDS011;34088;52.232;5.196;2023-06-26T02:34:19;9.52;;;5.47;;
48268;SDS011;34088;52.232;5.196;2023-06-26T02:36:45;12.73;;;5.70;;
48268;SDS011;34088;52.232;5.196;2023-06-26T02:39:10;10.75;;;5.50;;
48268;SDS011;34088;52.232;5.196;2023-06-26T02:41:35;12.27;;;5.80;;
48268;SDS011;34088;52.232;5.196;2023-06-26T02:44:01;12.38;;;6.00;;
48268;SDS011;34088;52.232;5.196;2023-06-26T02:46:26;13.35;;;5.78;;
48268;SDS011;34088;52.232;5.196;2023-06-26T02:48:51;14.95;;;6.03;;
48268;SDS011;34088;52.232;5.196;2023-06-26T02:51:17;15.43;;;5.97;;
48268;SDS011;34088;52.232;5.196;2023-06-26T02:53:42;19.65;;;6.05;;
48268;SDS011;34088;52.232;5.196;2023-06-26T02:56:07;14.40;;;6.30;;
48268;SDS011;34088;52.232;5.196;2023-06-26T02:58:33;16.02;;;6.63;;
48268;SDS011;34088;52.232;5.196;2023-06-26T03:00:58;20.88;;;7.10;;
48268;SDS011;34088;52.232;5.196;2023-06-26T03:03:23;22.23;;;6.63;;
48268;SDS011;34088;52.232;5.196;2023-06-26T03:05:48;17.15;;;6.47;;
48268;SDS011;34088;52.232;5.196;2023-06-26T03:08:14;18.23;;;6.13;;
48268;SDS011;34088;52.232;5.196;2023-06-26T03:10:39;18.73;;;7.05;;
48268;SDS011;34088;52.232;5.196;2023-06-26T03:13:04;17.83;;;6.78;;
48268;SDS011;34088;52.232;5.196;2023-06-26T03:15:29;17.73;;;6.82;;
48268;SDS011;34088;52.232;5.196;2023-06-26T03:17:55;21.08;;;6.78;;
48268;SDS011;34088;52.232;5.196;2023-06-26T03:20:20;19.17;;;7.18;;
48268;SDS011;34088;52.232;5.196;2023-06-26T03:22:45;20.48;;;7.28;;
48268;SDS011;34088;52.232;5.196;2023-06-26T03:25:11;16.52;;;6.50;;
48268;SDS011;34088;52.232;5.196;2023-06-26T03:27:36;21.13;;;7.20;;
48268;SDS011;34088;52.232;5.196;2023-06-26T03:30:01;16.90;;;6.97;;
48268;SDS011;34088;52.232;5.196;2023-06-26T03:32:27;19.13;;;7.25;;
48268;SDS011;34088;52.232;5.196;2023-06-26T03:34:52;19.35;;;7.07;;
48268;SDS011;34088;52.232;5.196;2023-06-26T03:37:21;18.63;;;7.05;;
48268;SDS011;34088;52.232;5.196;2023-06-26T03:39:46;21.00;;;7.55;;
48268;SDS011;34088;52.232;5.196;2023-06-26T03:42:12;18.27;;;7.30;;
48268;SDS011;34088;52.232;5.196;2023-06-26T03:44:37;16.50;;;6.88;;
48268;SDS011;34088;52.232;5.196;2023-06-26T03:47:02;18.42;;;7.47;;
48268;SDS011;34088;52.232;5.196;2023-06-26T03:49:28;17.52;;;6.88;;
48268;SDS011;34088;52.232;5.196;2023-06-26T03:51:53;20.33;;;7.25;;
48268;SDS011;34088;52.232;5.196;2023-06-26T03:54:18;18.40;;;7.00;;
48268;SDS011;34088;52.232;5.196;2023-06-26T03:56:43;18.40;;;7.20;;
48268;SDS011;34088;52.232;5.196;2023-06-26T03:59:09;21.08;;;6.75;;
48268;SDS011;34088;52.232;5.196;2023-06-26T04:01:35;22.63;;;7.55;;
48268;SDS011;34088;52.232;5.196;2023-06-26T04:04:02;19.60;;;7.10;;
48268;SDS011;34088;52.232;5.196;2023-06-26T04:06:28;18.52;;;7.20;;
48268;SDS011;34088;52.232;5.196;2023-06-26T04:08:53;19.67;;;7.20;;
48268;SDS011;34088;52.232;5.196;2023-06-26T04:11:18;16.88;;;6.60;;
48268;SDS011;34088;52.232;5.196;2023-06-26T04:13:43;14.18;;;6.07;;
48268;SDS011;34088;52.232;5.196;2023-06-26T04:16:09;18.25;;;6.70;;
48268;SDS011;34088;52.232;5.196;2023-06-26T04:18:36;17.23;;;6.47;;
48268;SDS011;34088;52.232;5.196;2023-06-26T04:21:05;16.67;;;6.60;;
48268;SDS011;34088;52.232;5.196;2023-06-26T04:23:34;14.80;;;6.05;;
48268;SDS011;34088;52.232;5.196;2023-06-26T04:26:00;17.90;;;6.32;;
48268;SDS011;34088;52.232;5.196;2023-06-26T04:28:25;14.63;;;5.78;;
48268;SDS011;34088;52.232;5.196;2023-06-26T04:30:51;12.88;;;5.85;;
48268;SDS011;34088;52.232;5.196;2023-06-26T04:33:16;13.55;;;5.97;;
48268;SDS011;34088;52.232;5.196;2023-06-26T04:35:41;13.82;;;5.70;;
48268;SDS011;34088;52.232;5.196;2023-06-26T04:38:09;12.82;;;5.50;;
48268;SDS011;34088;52.232;5.196;2023-06-26T04:40:36;13.30;;;5.35;;
48268;SDS011;34088;52.232;5.196;2023-06-26T04:43:01;10.80;;;5.15;;
48268;SDS011;34088;52.232;5.196;2023-06-26T04:45:26;9.73;;;5.03;;
48268;SDS011;34088;52.232;5.196;2023-06-26T04:47:52;10.93;;;5.00;;
48268;SDS011;34088;52.232;5.196;2023-06-26T04:50:17;10.63;;;4.90;;
48268;SDS011;34088;52.232;5.196;2023-06-26T04:52:44;12.23;;;4.80;;
48268;SDS011;34088;52.232;5.196;2023-06-26T04:55:09;14.60;;;5.63;;
48268;SDS011;34088;52.232;5.196;2023-06-26T04:57:34;12.40;;;5.00;;
48268;SDS011;34088;52.232;5.196;2023-06-26T05:00:00;11.32;;;4.75;;
48268;SDS011;34088;52.232;5.196;2023-06-26T05:02:25;9.77;;;4.90;;
48268;SDS011;34088;52.232;5.196;2023-06-26T05:04:51;8.90;;;4.57;;
48268;SDS011;34088;52.232;5.196;2023-06-26T05:07:17;10.50;;;4.47;;
48268;SDS011;34088;52.232;5.196;2023-06-26T05:09:42;15.13;;;4.75;;
48268;SDS011;34088;52.232;5.196;2023-06-26T05:12:07;9.73;;;4.28;;
48268;SDS011;34088;52.232;5.196;2023-06-26T05:14:33;10.20;;;4.57;;
48268;SDS011;34088;52.232;5.196;2023-06-26T05:16:58;10.35;;;4.40;;
48268;SDS011;34088;52.232;5.196;2023-06-26T05:19:23;6.15;;;3.97;;
48268;SDS011;34088;52.232;5.196;2023-06-26T05:21:48;9.00;;;4.22;;
48268;SDS011;34088;52.232;5.196;2023-06-26T05:24:15;6.55;;;4.07;;
48268;SDS011;34088;52.232;5.196;2023-06-26T05:26:42;7.88;;;3.67;;
48268;SDS011;34088;52.232;5.196;2023-06-26T05:29:07;10.25;;;4.50;;
48268;SDS011;34088;52.232;5.196;2023-06-26T05:31:33;8.93;;;4.10;;
48268;SDS011;34088;52.232;5.196;2023-06-26T05:34:05;5.85;;;3.58;;
48268;SDS011;34088;52.232;5.196;2023-06-26T05:36:31;6.90;;;3.53;;
48268;SDS011;34088;52.232;5.196;2023-06-26T05:38:58;7.40;;;3.40;;
48268;SDS011;34088;52.232;5.196;2023-06-26T05:41:24;7.40;;;3.63;;
48268;SDS011;34088;52.232;5.196;2023-06-26T05:43:49;5.72;;;3.20;;
48268;SDS011;34088;52.232;5.196;2023-06-26T05:46:15;6.40;;;3.47;;
48268;SDS011;34088;52.232;5.196;2023-06-26T05:48:40;5.32;;;3.25;;
48268;SDS011;34088;52.232;5.196;2023-06-26T05:51:06;9.02;;;3.60;;
48268;SDS011;34088;52.232;5.196;2023-06-26T05:53:32;8.63;;;3.50;;
48268;SDS011;34088;52.232;5.196;2023-06-26T05:55:58;7.47;;;3.20;;
48268;SDS011;34088;52.232;5.196;2023-06-26T05:58:25;10.35;;;3.50;;
48268;SDS011;34088;52.232;5.196;2023-06-26T06:00:52;7.78;;;3.58;;
48268;SDS011;34088;52.232;5.196;2023-06-26T06:03:17;7.25;;;3.47;;
48268;SDS011;34088;52.232;5.196;2023-06-26T06:05:43;8.55;;;3.65;;
48268;SDS011;34088;52.232;5.196;2023-06-26T06:08:08;9.70;;;3.45;;
48268;SDS011;34088;52.232;5.196;2023-06-26T06:10:34;9.68;;;3.50;;
48268;SDS011;34088;52.232;5.196;2023-06-26T06:12:59;6.57;;;3.50;;
48268;SDS011;34088;52.232;5.196;2023-06-26T06:15:24;5.05;;;2.90;;
48268;SDS011;34088;52.232;5.196;2023-06-26T06:17:50;8.20;;;3.10;;
48268;SDS011;34088;52.232;5.196;2023-06-26T06:20:16;5.47;;;2.70;;
48268;SDS011;34088;52.232;5.196;2023-06-26T06:22:42;4.75;;;2.75;;
48268;SDS011;34088;52.232;5.196;2023-06-26T06:25:07;6.38;;;2.70;;
48268;SDS011;34088;52.232;5.196;2023-06-26T06:27:33;5.72;;;2.90;;
48268;SDS011;34088;52.232;5.196;2023-06-26T06:29:58;6.07;;;2.70;;
48268;SDS011;34088;52.232;5.196;2023-06-26T06:32:23;4.97;;;3.10;;
48268;SDS011;34088;52.232;5.196;2023-06-26T06:34:49;6.75;;;3.35;;
48268;SDS011;34088;52.232;5.196;2023-06-26T06:37:14;5.72;;;3.10;;
48268;SDS011;34088;52.232;5.196;2023-06-26T06:39:39;7.28;;;3.22;;
48268;SDS011;34088;52.232;5.196;2023-06-26T06:42:05;11.30;;;3.70;;
48268;SDS011;34088;52.232;5.196;2023-06-26T06:44:30;6.40;;;3.10;;
48268;SDS011;34088;52.232;5.196;2023-06-26T06:46:56;5.72;;;3.45;;
48268;SDS011;34088;52.232;5.196;2023-06-26T06:49:21;7.32;;;3.63;;
48268;SDS011;34088;52.232;5.196;2023-06-26T06:51:46;8.68;;;3.80;;
48268;SDS011;34088;52.232;5.196;2023-06-26T06:54:12;7.57;;;3.67;;
48268;SDS011;34088;52.232;5.196;2023-06-26T06:56:37;8.20;;;3.90;;
48268;SDS011;34088;52.232;5.196;2023-06-26T06:59:02;7.80;;;3.80;;
48268;SDS011;34088;52.232;5.196;2023-06-26T07:01:28;7.90;;;4.05;;
48268;SDS011;34088;52.232;5.196;2023-06-26T07:03:53;8.32;;;3.88;;
48268;SDS011;34088;52.232;5.196;2023-06-26T07:06:19;8.15;;;3.70;;
48268;SDS011;34088;52.232;5.196;2023-06-26T07:08:44;11.38;;;3.75;;
48268;SDS011;34088;52.232;5.196;2023-06-26T07:11:09;6.80;;;3.20;;
48268;SDS011;34088;52.232;5.196;2023-06-26T07:13:34;10.07;;;4.00;;
48268;SDS011;34088;52.232;5.196;2023-06-26T07:16:00;7.32;;;3.80;;
48268;SDS011;34088;52.232;5.196;2023-06-26T07:18:25;8.77;;;3.65;;
48268;SDS011;34088;52.232;5.196;2023-06-26T07:20:51;8.43;;;3.55;;
48268;SDS011;34088;52.232;5.196;2023-06-26T07:23:16;7.97;;;3.60;;
48268;SDS011;34088;52.232;5.196;2023-06-26T07:25:41;9.05;;;3.38;;
48268;SDS011;34088;52.232;5.196;2023-06-26T07:28:13;8.85;;;3.38;;
48268;SDS011;34088;52.232;5.196;2023-06-26T07:30:38;10.13;;;3.53;;
48268;SDS011;34088;52.232;5.196;2023-06-26T07:33:04;11.65;;;3.75;;
48268;SDS011;34088;52.232;5.196;2023-06-26T07:35:29;8.90;;;3.60;;
48268;SDS011;34088;52.232;5.196;2023-06-26T07:37:55;8.00;;;3.38;;
48268;SDS011;34088;52.232;5.196;2023-06-26T07:40:20;9.63;;;3.17;;
48268;SDS011;34088;52.232;5.196;2023-06-26T07:42:45;7.60;;;3.65;;
48268;SDS011;34088;52.232;5.196;2023-06-26T07:45:11;7.18;;;3.20;;
48268;SDS011;34088;52.232;5.196;2023-06-26T07:47:40;9.15;;;3.40;;
48268;SDS011;34088;52.232;5.196;2023-06-26T07:50:05;8.07;;;3.10;;
48268;SDS011;34088;52.232;5.196;2023-06-26T07:52:31;9.43;;;2.83;;
48268;SDS011;34088;52.232;5.196;2023-06-26T07:54:56;9.07;;;3.08;;
48268;SDS011;34088;52.232;5.196;2023-06-26T07:57:22;10.23;;;3.63;;
48268;SDS011;34088;52.232;5.196;2023-06-26T07:59:47;8.25;;;2.97;;
48268;SDS011;34088;52.232;5.196;2023-06-26T08:02:12;9.30;;;3.00;;
48268;SDS011;34088;52.232;5.196;2023-06-26T08:04:38;9.90;;;3.05;;
48268;SDS011;34088;52.232;5.196;2023-06-26T08:07:03;8.00;;;2.78;;
48268;SDS011;34088;52.232;5.196;2023-06-26T08:09:29;10.80;;;2.90;;
48268;SDS011;34088;52.232;5.196;2023-06-26T08:11:55;9.88;;;2.67;;
48268;SDS011;34088;52.232;5.196;2023-06-26T08:14:21;10.23;;;2.97;;
48268;SDS011;34088;52.232;5.196;2023-06-26T08:16:48;12.55;;;2.80;;
48268;SDS011;34088;52.232;5.196;2023-06-26T08:19:14;6.50;;;3.00;;
48268;SDS011;34088;52.232;5.196;2023-06-26T08:21:41;6.43;;;2.60;;
48268;SDS011;34088;52.232;5.196;2023-06-26T08:24:06;4.57;;;2.00;;
48268;SDS011;34088;52.232;5.196;2023-06-26T08:26:32;7.35;;;2.60;;
48268;SDS011;34088;52.232;5.196;2023-06-26T08:28:57;8.32;;;2.20;;
48268;SDS011;34088;52.232;5.196;2023-06-26T08:31:22;6.57;;;2.60;;
48268;SDS011;34088;52.232;5.196;2023-06-26T08:33:48;6.45;;;2.40;;
48268;SDS011;34088;52.232;5.196;2023-06-26T08:36:13;7.38;;;2.47;;
48268;SDS011;34088;52.232;5.196;2023-06-26T08:38:38;8.50;;;2.75;;
48268;SDS011;34088;52.232;5.196;2023-06-26T08:41:05;11.10;;;2.58;;
48268;SDS011;34088;52.232;5.196;2023-06-26T08:43:31;7.55;;;2.53;;
48268;SDS011;34088;52.232;5.196;2023-06-26T08:45:56;8.27;;;2.53;;
48268;SDS011;34088;52.232;5.196;2023-06-26T08:48:22;7.30;;;2.42;;
48268;SDS011;34088;52.232;5.196;2023-06-26T08:50:49;8.75;;;2.30;;
48268;SDS011;34088;52.232;5.196;2023-06-26T08:53:27;7.35;;;2.53;;
48268;SDS011;34088;52.232;5.196;2023-06-26T08:55:58;6.07;;;2.60;;
48268;SDS011;34088;52.232;5.196;2023-06-26T08:58:25;6.63;;;2.58;;
48268;SDS011;34088;52.232;5.196;2023-06-26T09:00:50;10.25;;;2.92;;
48268;SDS011;34088;52.232;5.196;2023-06-26T09:03:16;7.65;;;2.42;;
48268;SDS011;34088;52.232;5.196;2023-06-26T09:05:42;9.05;;;2.63;;
48268;SDS011;34088;52.232;5.196;2023-06-26T09:08:07;6.32;;;2.55;;
48268;SDS011;34088;52.232;5.196;2023-06-26T09:10:33;8.10;;;2.70;;
48268;SDS011;34088;52.232;5.196;2023-06-26T09:12:59;5.85;;;2.47;;
48268;SDS011;34088;52.232;5.196;2023-06-26T09:15:26;5.28;;;2.25;;
48268;SDS011;34088;52.232;5.196;2023-06-26T09:17:55;7.32;;;2.38;;
48268;SDS011;34088;52.232;5.196;2023-06-26T09:20:21;9.13;;;2.28;;
48268;SDS011;34088;52.232;5.196;2023-06-26T09:22:47;7.63;;;2.33;;
48268;SDS011;34088;52.232;5.196;2023-06-26T09:25:13;6.55;;;2.17;;
48268;SDS011;34088;52.232;5.196;2023-06-26T09:27:40;9.25;;;2.72;;
48268;SDS011;34088;52.232;5.196;2023-06-26T09:30:08;5.95;;;2.25;;
48268;SDS011;34088;52.232;5.196;2023-06-26T09:32:36;6.22;;;2.15;;
48268;SDS011;34088;52.232;5.196;2023-06-26T09:35:02;6.30;;;2.28;;
48268;SDS011;34088;52.232;5.196;2023-06-26T09:37:28;7.70;;;2.40;;
48268;SDS011;34088;52.232;5.196;2023-06-26T09:39:54;6.88;;;2.28;;
48268;SDS011;34088;52.232;5.196;2023-06-26T09:42:20;6.45;;;2.10;;
48268;SDS011;34088;52.232;5.196;2023-06-26T09:44:46;7.55;;;2.20;;
48268;SDS011;34088;52.232;5.196;2023-06-26T09:47:13;4.85;;;1.98;;
48268;SDS011;34088;52.232;5.196;2023-06-26T09:49:41;5.13;;;1.48;;
48268;SDS011;34088;52.232;5.196;2023-06-26T09:52:08;4.47;;;1.70;;
48268;SDS011;34088;52.232;5.196;2023-06-26T09:54:34;6.35;;;2.10;;
48268;SDS011;34088;52.232;5.196;2023-06-26T09:57:11;5.57;;;1.70;;
48268;SDS011;34088;52.232;5.196;2023-06-26T09:59:44;6.28;;;1.80;;
48268;SDS011;34088;52.232;5.196;2023-06-26T10:02:12;5.53;;;1.70;;
48268;SDS011;34088;52.232;5.196;2023-06-26T10:04:38;5.75;;;1.80;;
48268;SDS011;34088;52.232;5.196;2023-06-26T10:07:08;5.15;;;1.55;;
48268;SDS011;34088;52.232;5.196;2023-06-26T10:09:38;5.03;;;1.50;;
48268;SDS011;34088;52.232;5.196;2023-06-26T10:12:11;3.70;;;1.40;;
48268;SDS011;34088;52.232;5.196;2023-06-26T10:14:42;3.78;;;1.30;;
48268;SDS011;34088;52.232;5.196;2023-06-26T10:17:09;7.38;;;1.77;;
48268;SDS011;34088;52.232;5.196;2023-06-26T10:19:37;3.67;;;1.40;;
48268;SDS011;34088;52.232;5.196;2023-06-26T10:22:04;6.28;;;1.52;;
48268;SDS011;34088;52.232;5.196;2023-06-26T10:24:31;4.82;;;1.70;;
48268;SDS011;34088;52.232;5.196;2023-06-26T10:27:08;3.08;;;1.52;;
48268;SDS011;34088;52.232;5.196;2023-06-26T10:29:39;5.07;;;1.48;;
48268;SDS011;34088;52.232;5.196;2023-06-26T10:32:05;3.55;;;1.50;;
48268;SDS011;34088;52.232;5.196;2023-06-26T10:34:32;3.90;;;1.58;;
48268;SDS011;34088;52.232;5.196;2023-06-26T10:37:02;4.15;;;1.63;;
48268;SDS011;34088;52.232;5.196;2023-06-26T10:42:15;8.52;;;1.90;;
48268;SDS011;34088;52.232;5.196;2023-06-26T10:44:45;8.40;;;1.90;;
48268;SDS011;34088;52.232;5.196;2023-06-26T10:47:13;4.53;;;1.50;;
48268;SDS011;34088;52.232;5.196;2023-06-26T10:49:55;3.50;;;1.80;;
48268;SDS011;34088;52.232;5.196;2023-06-26T10:52:20;7.85;;;1.60;;
48268;SDS011;34088;52.232;5.196;2023-06-26T10:54:46;4.68;;;1.50;;
48268;SDS011;34088;52.232;5.196;2023-06-26T10:57:11;4.80;;;1.50;;
48268;SDS011;34088;52.232;5.196;2023-06-26T11:00:07;6.78;;;1.90;;
48268;SDS011;34088;52.232;5.196;2023-06-26T11:02:47;5.82;;;1.88;;
48268;SDS011;34088;52.232;5.196;2023-06-26T11:05:23;5.35;;;1.65;;
48268;SDS011;34088;52.232;5.196;2023-06-26T11:08:10;5.15;;;1.70;;
48268;SDS011;34088;52.232;5.196;2023-06-26T11:10:53;5.03;;;1.98;;
48268;SDS011;34088;52.232;5.196;2023-06-26T11:13:20;3.58;;;1.58;;
48268;SDS011;34088;52.232;5.196;2023-06-26T11:15:46;4.50;;;1.50;;
48268;SDS011;34088;52.232;5.196;2023-06-26T11:18:13;4.28;;;1.45;;
48268;SDS011;34088;52.232;5.196;2023-06-26T11:20:39;4.68;;;1.60;;
48268;SDS011;34088;52.232;5.196;2023-06-26T11:23:05;4.32;;;1.48;;
48268;SDS011;34088;52.232;5.196;2023-06-26T11:25:35;4.25;;;1.40;;
48268;SDS011;34088;52.232;5.196;2023-06-26T11:28:02;3.85;;;1.20;;
48268;SDS011;34088;52.232;5.196;2023-06-26T11:30:28;4.85;;;1.17;;
48268;SDS011;34088;52.232;5.196;2023-06-26T11:33:01;3.78;;;1.20;;
48268;SDS011;34088;52.232;5.196;2023-06-26T11:35:28;5.25;;;1.45;;
48268;SDS011;34088;52.232;5.196;2023-06-26T11:37:56;4.55;;;1.40;;
48268;SDS011;34088;52.232;5.196;2023-06-26T11:40:25;3.58;;;1.40;;
48268;SDS011;34088;52.232;5.196;2023-06-26T11:42:56;5.57;;;1.27;;
48268;SDS011;34088;52.232;5.196;2023-06-26T11:45:23;8.18;;;1.65;;
48268;SDS011;34088;52.232;5.196;2023-06-26T11:47:48;3.10;;;1.20;;
48268;SDS011;34088;52.232;5.196;2023-06-26T11:50:17;5.00;;;1.27;;
48268;SDS011;34088;52.232;5.196;2023-06-26T11:52:43;4.95;;;1.35;;
48268;SDS011;34088;52.232;5.196;2023-06-26T11:55:09;5.97;;;1.45;;
48268;SDS011;34088;52.232;5.196;2023-06-26T11:57:35;7.20;;;1.40;;
48268;SDS011;34088;52.232;5.196;2023-06-26T12:00:11;5.32;;;1.60;;
48268;SDS011;34088;52.232;5.196;2023-06-26T12:02:37;3.20;;;1.20;;
48268;SDS011;34088;52.232;5.196;2023-06-26T12:05:03;5.57;;;1.30;;
48268;SDS011;34088;52.232;5.196;2023-06-26T12:07:29;3.67;;;1.30;;
48268;SDS011;34088;52.232;5.196;2023-06-26T12:09:56;3.45;;;1.10;;
48268;SDS011;34088;52.232;5.196;2023-06-26T12:12:23;3.15;;;1.02;;
48268;SDS011;34088;52.232;5.196;2023-06-26T12:14:49;2.28;;;1.10;;
48268;SDS011;34088;52.232;5.196;2023-06-26T12:17:16;4.80;;;1.25;;
48268;SDS011;34088;52.232;5.196;2023-06-26T12:19:46;3.65;;;1.30;;
48268;SDS011;34088;52.232;5.196;2023-06-26T12:22:15;4.93;;;1.83;;
48268;SDS011;34088;52.232;5.196;2023-06-26T12:24:41;5.53;;;1.40;;
48268;SDS011;34088;52.232;5.196;2023-06-26T12:27:11;4.90;;;1.38;;
48268;SDS011;34088;52.232;5.196;2023-06-26T12:29:39;4.60;;;1.30;;
48268;SDS011;34088;52.232;5.196;2023-06-26T12:32:08;6.22;;;1.30;;
48268;SDS011;34088;52.232;5.196;2023-06-26T12:34:35;6.07;;;1.45;;
48268;SDS011;34088;52.232;5.196;2023-06-26T12:37:02;4.13;;;1.30;;
48268;SDS011;34088;52.232;5.196;2023-06-26T12:39:29;3.88;;;1.40;;
48268;SDS011;34088;52.232;5.196;2023-06-26T12:42:12;4.45;;;1.45;;
48268;SDS011;34088;52.232;5.196;2023-06-26T12:44:39;4.18;;;1.38;;
48268;SDS011;34088;52.232;5.196;2023-06-26T12:47:04;3.83;;;1.42;;
48268;SDS011;34088;52.232;5.196;2023-06-26T12:52:04;3.45;;;1.02;;
48268;SDS011;34088;52.232;5.196;2023-06-26T12:54:31;6.68;;;1.55;;
48268;SDS011;34088;52.232;5.196;2023-06-26T12:56:57;3.95;;;1.30;;
48268;SDS011;34088;52.232;5.196;2023-06-26T12:59:22;3.67;;;1.40;;
48268;SDS011;34088;52.232;5.196;2023-06-26T13:01:48;4.43;;;1.50;;
48268;SDS011;34088;52.232;5.196;2023-06-26T13:04:14;4.78;;;1.35;;
48268;SDS011;34088;52.232;5.196;2023-06-26T13:06:39;5.93;;;1.45;;
48268;SDS011;34088;52.232;5.196;2023-06-26T13:09:04;4.20;;;1.30;;
48268;SDS011;34088;52.232;5.196;2023-06-26T13:11:30;4.47;;;1.40;;
48268;SDS011;34088;52.232;5.196;2023-06-26T13:13:56;5.78;;;1.48;;
48268;SDS011;34088;52.232;5.196;2023-06-26T13:16:21;3.92;;;1.30;;
48268;SDS011;34088;52.232;5.196;2023-06-26T13:18:47;3.50;;;1.25;;
48268;SDS011;34088;52.232;5.196;2023-06-26T13:21:13;5.95;;;1.40;;
48268;SDS011;34088;52.232;5.196;2023-06-26T13:23:39;3.95;;;1.30;;
48268;SDS011;34088;52.232;5.196;2023-06-26T13:26:04;3.55;;;1.25;;
48268;SDS011;34088;52.232;5.196;2023-06-26T13:28:30;5.93;;;1.70;;
48268;SDS011;34088;52.232;5.196;2023-06-26T13:30:55;9.02;;;1.75;;
48268;SDS011;34088;52.232;5.196;2023-06-26T13:33:21;6.25;;;1.60;;
48268;SDS011;34088;52.232;5.196;2023-06-26T13:35:46;4.70;;;1.73;;
48268;SDS011;34088;52.232;5.196;2023-06-26T13:38:11;9.05;;;1.70;;
48268;SDS011;34088;52.232;5.196;2023-06-26T13:40:37;2.75;;;1.30;;
48268;SDS011;34088;52.232;5.196;2023-06-26T13:43:02;4.45;;;1.40;;
48268;SDS011;34088;52.232;5.196;2023-06-26T13:45:28;4.53;;;1.30;;
48268;SDS011;34088;52.232;5.196;2023-06-26T13:47:54;3.75;;;1.40;;
48268;SDS011;34088;52.232;5.196;2023-06-26T13:50:19;5.18;;;1.40;;
48268;SDS011;34088;52.232;5.196;2023-06-26T13:52:44;4.78;;;1.85;;
48268;SDS011;34088;52.232;5.196;2023-06-26T13:55:10;2.35;;;1.30;;
48268;SDS011;34088;52.232;5.196;2023-06-26T13:57:35;2.83;;;1.20;;
48268;SDS011;34088;52.232;5.196;2023-06-26T14:00:07;5.03;;;1.30;;
48268;SDS011;34088;52.232;5.196;2023-06-26T14:02:34;4.40;;;1.40;;
48268;SDS011;34088;52.232;5.196;2023-06-26T14:04:59;4.68;;;1.30;;
48268;SDS011;34088;52.232;5.196;2023-06-26T14:07:24;4.70;;;1.38;;
48268;SDS011;34088;52.232;5.196;2023-06-26T14:09:50;3.90;;;1.40;;
48268;SDS011;34088;52.232;5.196;2023-06-26T14:12:15;5.65;;;1.40;;
48268;SDS011;34088;52.232;5.196;2023-06-26T14:14:40;4.00;;;1.30;;
48268;SDS011;34088;52.232;5.196;2023-06-26T14:17:07;6.15;;;1.52;;
48268;SDS011;34088;52.232;5.196;2023-06-26T14:19:34;3.13;;;1.10;;
48268;SDS011;34088;52.232;5.196;2023-06-26T14:21:59;2.70;;;1.25;;
48268;SDS011;34088;52.232;5.196;2023-06-26T14:24:24;5.43;;;1.60;;
48268;SDS011;34088;52.232;5.196;2023-06-26T14:26:50;2.35;;;1.20;;
48268;SDS011;34088;52.232;5.196;2023-06-26T14:29:15;3.97;;;1.25;;
48268;SDS011;34088;52.232;5.196;2023-06-26T14:31:42;3.60;;;1.25;;
48268;SDS011;34088;52.232;5.196;2023-06-26T14:34:08;3.55;;;1.25;;
48268;SDS011;34088;52.232;5.196;2023-06-26T14:36:33;4.18;;;1.30;;
48268;SDS011;34088;52.232;5.196;2023-06-26T14:38:58;1.83;;;1.20;;
48268;SDS011;34088;52.232;5.196;2023-06-26T14:41:24;5.05;;;1.23;;
48268;SDS011;34088;52.232;5.196;2023-06-26T14:43:50;5.22;;;1.20;;
48268;SDS011;34088;52.232;5.196;2023-06-26T14:46:15;2.33;;;1.10;;
48268;SDS011;34088;52.232;5.196;2023-06-26T14:48:40;7.00;;;1.55;;
48268;SDS011;34088;52.232;5.196;2023-06-26T14:51:06;4.28;;;1.50;;
48268;SDS011;34088;52.232;5.196;2023-06-26T14:53:31;3.75;;;1.63;;
48268;SDS011;34088;52.232;5.196;2023-06-26T14:55:56;7.00;;;1.70;;
48268;SDS011;34088;52.232;5.196;2023-06-26T14:58:22;4.72;;;1.70;;